Bolton Landing, NY (12814)

1:14 AM EDT on July 08, 2015 (GMT -0400)
Bolton / Lake George | | Change Station
CLOSE
Current Station
Personal Weather Station
Location: Bolton Landing, NY
Elevation: 400 ft
Nearby Weather Stations

Elev 400 ft 43.59 °N, 73.64 °W | Updated 3 minutes ago

Partly Cloudy
Partly Cloudy
71.6 °F
Feels Like 71.6 °F
N
0.0
Wind Variable Wind from ENE
Gusts 2.0 mph

Today
High -- | Low -- °F
--% Chance of Precip.
Yesterday
High -- | Low -- °F
Precip. -- in
5:21 AM 8:37 PM
Waning Gibbous, 57% visible
Pressure 29.87 in
Visibility 8.0 miles
Clouds Few 800 ft
Dew Point 70 °F
Humidity 96%
Rainfall 0.00 in
Snow Depth Not available.
UV 0 out of 12
Pollen 3.00 out of 12
Air Quality Not available.
Flu Activity Not available.
METAR KGFL 080453Z AUTO 20006KT 8SM FEW008 22/21 A2987 RMK AO2 SLP113 T02220206 402780183

More Conditions Fewer Conditions

Pressure 29.87 in
Visibility 8.0 miles
Clouds Few 800 ft
Dew Point 70 °F
Humidity 96%
Rainfall 0.00 in
Snow Depth Not available.
UV 0 out of 12
Pollen 3.00 out of 12
Air Quality Not available.
Flu Activity Not available.
METAR KGFL 080453Z AUTO 20006KT 8SM FEW008 22/21 A2987 RMK AO2 SLP113 T02220206 402780183

More Conditions Fewer Conditions

10-Day Weather Forecast

×

Almanac

Astronomy

Jul. 08, 2015 Rise Set
Actual Time
Civil Twilight
Nautical Twilight
Astronomical Twilight
Moon
Length of Visible Light
Length of Day
Tomorrow will be .
, % of the Moon is Illuminated

Today's Extremes

State Highs State Lows

Community

WunderPhotos

Upload Photos

1,836,057 photos uploaded!

WunderBlogs® & News

Nearby

Air Quality

  Air Quality AQ Index Pollutant
Not available.

Snow Depth

Station Depth Elevation

Earthquake Activity

City Distance Mag. Time & Date
Minimum magnitude displayed is 2.5.

Coastal Water Temperatures

Place Temperature

Stations

Nearby Weather Stations

Station Location Temp. Windchill Dew Point Humidity Wind Precip. Elev Updated Type